createdAt,value
2022-08-19T00:00:20.117Z,78.6
2022-08-19T00:05:20.141Z,78.5
2022-08-19T00:10:20.122Z,78.4
2022-08-19T00:15:17.147Z,78.3
2022-08-19T00:20:17.127Z,78.2
2022-08-19T00:25:19.025Z,78.2
2022-08-19T00:30:17.133Z,78.1
2022-08-19T00:35:20.175Z,78.0
2022-08-19T00:40:20.150Z,77.9
2022-08-19T00:45:20.138Z,77.8
2022-08-19T00:50:20.116Z,77.7
2022-08-19T00:55:22.253Z,77.6
2022-08-19T01:00:20.154Z,77.5
2022-08-19T01:05:17.129Z,77.4
2022-08-19T01:10:20.117Z,77.2
2022-08-19T01:15:20.168Z,77.1
2022-08-19T01:20:20.149Z,77.0
2022-08-19T01:25:20.156Z,76.9
2022-08-19T01:30:21.981Z,76.7
2022-08-19T01:35:17.161Z,76.6
2022-08-19T01:40:20.146Z,76.5
2022-08-19T01:45:20.124Z,76.4
2022-08-19T01:50:17.162Z,76.3
2022-08-19T01:55:17.192Z,76.2
2022-08-19T02:00:20.196Z,76.0
2022-08-19T02:05:21.896Z,76.0
2022-08-19T02:10:17.165Z,75.8
2022-08-19T02:15:20.144Z,75.7
2022-08-19T02:20:20.166Z,75.6
2022-08-19T02:25:20.134Z,75.5
2022-08-19T02:30:20.155Z,75.5
2022-08-19T02:35:20.228Z,75.4
2022-08-19T02:40:18.851Z,75.3
2022-08-19T02:45:17.231Z,75.2
2022-08-19T02:50:20.288Z,75.1
2022-08-19T02:55:20.112Z,75.0
2022-08-19T03:00:20.181Z,74.9
2022-08-19T03:05:20.155Z,74.8
2022-08-19T03:10:17.198Z,74.7
2022-08-19T03:15:22.159Z,74.6
2022-08-19T03:20:20.200Z,74.5
2022-08-19T03:25:20.140Z,74.4
2022-08-19T03:30:20.408Z,74.3
2022-08-19T03:35:17.281Z,74.2
2022-08-19T03:40:17.309Z,74.1
2022-08-19T03:45:17.217Z,73.9
2022-08-19T03:50:21.993Z,73.8
2022-08-19T03:55:20.125Z,73.7
2022-08-19T04:00:19.431Z,73.6
2022-08-19T04:05:19.446Z,73.5
2022-08-19T04:10:19.457Z,73.4
2022-08-19T04:15:19.494Z,73.3
2022-08-19T04:20:19.489Z,73.1
2022-08-19T04:25:21.184Z,73.1
2022-08-19T04:30:16.486Z,72.9
2022-08-19T04:35:23.134Z,72.8
2022-08-19T04:40:19.476Z,72.7
2022-08-19T04:45:19.474Z,72.6
2022-08-19T04:50:19.508Z,72.5
2022-08-19T04:55:19.508Z,72.3
2022-08-19T05:00:21.161Z,72.2
2022-08-19T05:05:19.481Z,72.1
2022-08-19T05:10:16.386Z,72.0
2022-08-19T05:15:19.478Z,72.0
2022-08-19T05:20:19.443Z,71.9
2022-08-19T05:25:16.474Z,71.8
2022-08-19T05:30:16.534Z,71.7
2022-08-19T05:35:18.177Z,71.6
2022-08-19T05:40:19.694Z,71.5
2022-08-19T05:45:19.453Z,71.4
2022-08-19T05:50:19.496Z,71.3
2022-08-19T05:55:19.461Z,71.2
2022-08-19T06:00:24.460Z,71.1
2022-08-19T06:05:21.226Z,71.0
2022-08-19T06:10:19.559Z,70.9
2022-08-19T06:15:19.495Z,70.7
2022-08-19T06:20:16.549Z,70.6
2022-08-19T06:25:19.546Z,70.5
2022-08-19T06:30:16.487Z,70.4
2022-08-19T06:35:19.528Z,70.3
2022-08-19T06:40:21.453Z,70.2
2022-08-19T06:45:19.553Z,70.1
2022-08-19T06:50:19.483Z,70.0
2022-08-19T06:55:19.572Z,69.9
2022-08-19T07:00:19.575Z,69.8
2022-08-19T07:05:19.494Z,69.7
2022-08-19T07:10:19.549Z,69.5
2022-08-19T07:15:18.862Z,69.4
2022-08-19T07:20:19.554Z,69.3
2022-08-19T07:25:19.492Z,69.2
2022-08-19T07:30:19.539Z,69.2
2022-08-19T07:35:19.603Z,69.1
2022-08-19T07:40:19.547Z,69.0
2022-08-19T07:45:21.401Z,68.9
2022-08-19T07:50:16.559Z,68.9
2022-08-19T07:55:40.725Z,68.8
2022-08-19T08:00:23.170Z,68.7
2022-08-19T08:05:19.637Z,68.6
2022-08-19T08:10:20.627Z,68.6
2022-08-19T08:15:19.575Z,68.5
2022-08-19T08:20:18.311Z,68.4
2022-08-19T08:25:16.543Z,68.3
2022-08-19T08:30:16.560Z,68.2
2022-08-19T08:35:16.683Z,68.1
2022-08-19T08:40:19.702Z,68.1
2022-08-19T08:45:19.534Z,68.0
2022-08-19T08:50:21.556Z,68.0
2022-08-19T08:55:20.384Z,67.9
2022-08-19T09:00:19.611Z,67.8
2022-08-19T09:05:22.328Z,67.7
2022-08-19T09:10:19.709Z,67.7
2022-08-19T09:15:19.612Z,67.6
2022-08-19T09:20:19.558Z,67.5
2022-08-19T09:25:24.568Z,67.5
2022-08-19T09:30:19.565Z,67.5
2022-08-19T09:35:16.600Z,67.5
2022-08-19T09:40:16.781Z,67.5
2022-08-19T09:45:19.681Z,67.4
2022-08-19T09:50:19.666Z,67.4
2022-08-19T09:55:19.608Z,67.4
2022-08-19T10:00:21.418Z,67.4
2022-08-19T10:05:23.129Z,67.3
2022-08-19T10:10:19.554Z,67.3
2022-08-19T10:15:17.170Z,67.2
2022-08-19T10:20:19.652Z,67.2
2022-08-19T10:25:19.633Z,67.2
2022-08-19T10:30:16.623Z,67.2
2022-08-19T10:35:22.111Z,67.1
2022-08-19T10:40:19.651Z,67.1
2022-08-19T10:45:19.643Z,67.1
2022-08-19T10:50:19.902Z,67.1
2022-08-19T10:55:19.644Z,67.2
2022-08-19T11:00:19.678Z,67.2
2022-08-19T11:05:19.682Z,67.4
2022-08-19T11:10:22.110Z,67.5
2022-08-19T11:15:19.612Z,67.6
2022-08-19T11:20:19.624Z,67.8
2022-08-19T11:25:16.634Z,68.0
2022-08-19T11:30:19.633Z,68.3
2022-08-19T11:35:19.615Z,68.5
2022-08-19T11:40:16.697Z,68.7
2022-08-19T11:45:21.481Z,69.0
2022-08-19T11:50:19.630Z,69.4
2022-08-19T11:55:19.609Z,69.7
2022-08-19T12:00:16.657Z,70.2
2022-08-19T12:05:16.747Z,70.6
2022-08-19T12:10:18.975Z,71.1
2022-08-19T12:15:19.697Z,71.6
2022-08-19T12:20:21.389Z,72.1
2022-08-19T12:25:19.591Z,72.6
2022-08-19T12:30:16.665Z,73.0
2022-08-19T12:35:19.705Z,73.5
2022-08-19T12:40:19.719Z,74.0
2022-08-19T12:45:19.713Z,74.4
2022-08-19T12:50:19.663Z,74.8
2022-08-19T12:55:21.734Z,75.2
2022-08-19T13:00:19.717Z,75.6
2022-08-19T13:05:19.622Z,76.1
2022-08-19T13:10:19.665Z,77.1
2022-08-19T13:15:19.366Z,78.0
2022-08-19T13:20:19.695Z,78.5
2022-08-19T13:25:19.976Z,78.9
2022-08-19T13:30:21.660Z,79.6
2022-08-19T13:35:19.709Z,79.4
2022-08-19T13:40:16.722Z,80.3
2022-08-19T13:45:19.707Z,80.4
2022-08-19T13:50:19.668Z,81.3
2022-08-19T13:55:24.901Z,81.1
2022-08-19T14:00:19.695Z,82.1
2022-08-19T14:05:21.367Z,82.2
2022-08-19T14:10:19.680Z,82.3
2022-08-19T14:15:19.685Z,82.4
2022-08-19T14:20:19.744Z,82.9
2022-08-19T14:25:16.713Z,84.0
2022-08-19T14:30:16.728Z,83.5
2022-08-19T14:35:19.754Z,83.8
2022-08-19T14:40:21.670Z,83.7
2022-08-19T14:45:19.694Z,84.0
2022-08-19T14:50:17.876Z,84.6
2022-08-19T14:55:19.767Z,86.0
2022-08-19T15:00:16.662Z,86.2
2022-08-19T15:05:19.739Z,85.6
2022-08-19T15:10:19.830Z,85.9
2022-08-19T15:15:21.516Z,85.1
2022-08-19T15:20:19.707Z,87.2
2022-08-19T15:25:19.709Z,87.0
2022-08-19T15:30:16.755Z,86.6
2022-08-19T15:35:16.757Z,87.4
2022-08-19T15:40:16.652Z,87.0
2022-08-19T15:45:19.770Z,87.2
2022-08-19T15:50:21.578Z,86.9
2022-08-19T15:55:32.205Z,86.3
2022-08-19T16:00:16.755Z,87.2
2022-08-19T16:05:19.768Z,87.9
2022-08-19T16:10:27.134Z,88.3
2022-08-19T16:15:19.685Z,87.1
2022-08-19T16:20:20.262Z,87.7
2022-08-19T16:25:21.654Z,87.7
2022-08-19T16:30:19.743Z,88.4
2022-08-19T16:35:19.755Z,88.2
2022-08-19T16:40:16.788Z,87.8
2022-08-19T16:45:19.768Z,87.4
2022-08-19T16:50:22.100Z,87.6
2022-08-19T16:55:19.745Z,88.3
2022-08-19T17:00:21.665Z,88.3
2022-08-19T17:05:19.734Z,88.2
2022-08-19T17:10:19.770Z,88.3
2022-08-19T17:15:16.830Z,89.3
2022-08-19T17:20:16.754Z,89.5
2022-08-19T17:25:16.846Z,90.0
2022-08-19T17:30:16.817Z,89.7
2022-08-19T17:35:24.280Z,89.1
2022-08-19T17:40:19.827Z,89.2
2022-08-19T17:45:19.799Z,90.0
2022-08-19T17:50:19.752Z,89.9
2022-08-19T17:55:19.795Z,89.7
2022-08-19T18:00:17.763Z,89.6
2022-08-19T18:05:19.793Z,89.7
2022-08-19T18:10:21.622Z,90.0
2022-08-19T18:15:19.767Z,89.7
2022-08-19T18:20:16.797Z,89.7
2022-08-19T18:25:19.797Z,90.0
2022-08-19T18:30:19.830Z,89.7
2022-08-19T18:35:19.819Z,90.1
2022-08-19T18:40:19.813Z,90.2
2022-08-19T18:45:21.680Z,90.0
2022-08-19T18:50:19.769Z,89.6
2022-08-19T18:55:16.742Z,89.6
2022-08-19T19:00:19.840Z,90.1
2022-08-19T19:05:19.816Z,90.3
2022-08-19T19:10:16.809Z,89.8
2022-08-19T19:15:19.866Z,90.1
2022-08-19T19:20:21.688Z,90.3
2022-08-19T19:25:19.787Z,90.1
2022-08-19T19:30:19.848Z,89.9
2022-08-19T19:35:19.828Z,89.7
2022-08-19T19:40:19.856Z,90.2
2022-08-19T19:45:19.887Z,90.0
2022-08-19T19:50:19.785Z,90.4
2022-08-19T19:55:21.584Z,90.3
2022-08-19T20:00:19.824Z,90.3
2022-08-19T20:05:19.808Z,90.4
2022-08-19T20:10:19.813Z,90.4
2022-08-19T20:15:16.861Z,90.2
2022-08-19T20:20:19.829Z,90.6
2022-08-19T20:25:22.109Z,90.7
2022-08-19T20:30:19.579Z,90.4
2022-08-19T20:35:19.847Z,89.9
2022-08-19T20:40:21.577Z,89.5
2022-08-19T20:45:33.312Z,89.5
2022-08-19T20:50:16.845Z,89.4
2022-08-19T20:55:16.885Z,89.5
2022-08-19T21:00:21.800Z,89.9
2022-08-19T21:05:19.820Z,90.0
2022-08-19T21:10:19.838Z,90.0
2022-08-19T21:15:19.898Z,90.1
2022-08-19T21:20:19.837Z,90.1
2022-08-19T21:25:16.844Z,90.0
2022-08-19T21:30:16.913Z,90.0
2022-08-19T21:35:21.766Z,90.0
2022-08-19T21:40:16.981Z,90.2
2022-08-19T21:45:19.955Z,90.1
2022-08-19T21:50:19.856Z,90.0
2022-08-19T21:55:19.882Z,89.9
2022-08-19T22:00:19.833Z,89.6
2022-08-19T22:05:19.905Z,89.5
2022-08-19T22:10:21.655Z,89.5
2022-08-19T22:15:16.885Z,89.3
2022-08-19T22:20:16.917Z,89.3
2022-08-19T22:25:31.208Z,89.3
2022-08-19T22:30:19.970Z,89.3
2022-08-19T22:35:19.906Z,89.2
2022-08-19T22:40:19.895Z,89.1
2022-08-19T22:45:21.730Z,89.0
2022-08-19T22:50:16.817Z,88.9
2022-08-19T22:55:17.628Z,88.8
2022-08-19T23:00:19.916Z,88.6
2022-08-19T23:05:21.810Z,88.5
2022-08-19T23:10:16.955Z,88.4
2022-08-19T23:15:19.956Z,88.2
2022-08-19T23:20:18.666Z,88.1
2022-08-19T23:25:19.912Z,88.0
2022-08-19T23:30:19.929Z,87.8
2022-08-19T23:35:19.907Z,87.7
2022-08-19T23:40:19.904Z,87.5
2022-08-19T23:45:23.936Z,87.4
2022-08-19T23:50:21.794Z,87.3
2022-08-19T23:55:19.906Z,87.1
